Terminal Aerodrome Forecast
Issued by NWS

Home | Current Version | Previous Version | Text Only | Print | Product List | Glossary On
Versions: 1 2 3 4 5 6 7 8 9 10 11 12 13 14 15 16 17 18 19
000
FTUS42 KKEY 041133
TAFMTH
TAF
KMTH 041133Z 0412/0512 21009KT P6SM SCT015 BKN100
     FM041900 25014G20KT P6SM VCSH SCT020 BKN050 OVC100 PROB30
      0422/0504 VRB18G28KT 1SM +TSRA BKN015CB OVC030
     FM050500 30013G18KT P6SM SCT020 BKN070=

USA.gov is the U.S. government's official web portal to all federal, state and local government web resources and services.